Time;durP1;ratioP1;P1;durP2;ratioP2;P2;SDS_P1;SDS_P2;PMS_P1;PMS_P2;Temp;Humidity;BMP_temperature;BMP_pressure;BME280_temperature;BME280_humidity;BME280_pressure;Samples;Min_cycle;Max_cycle;Signal;HPM_P1;HPM_P2
2021/10/17 00:00:06;;;;;;;;;;;8.80;99.90;9.20;99883.00;;;;349068;27;96579;-88
2021/10/17 00:00:29;;;;;;;;;;;8.80;99.90;9.20;99878.00;;;;342594;28;82501;-89
2021/10/17 00:00:40;;;;;;;;;;;8.80;99.90;9.30;99885.00;;;;342595;28;95493;-89
2021/10/17 00:00:52;;;;;;;;;;;8.80;99.90;9.30;99883.00;;;;342292;28;83067;-89
2021/10/17 00:01:04;;;;;;;;;;;8.80;99.90;9.20;99874.00;;;;344636;28;95809;-89
2021/10/17 00:01:16;;;;;;;;;;;8.80;99.90;9.20;99881.00;;;;343263;28;82495;-89
2021/10/17 00:01:28;;;;;;;;;;;8.80;99.90;9.20;99879.00;;;;341256;28;96178;-89
2021/10/17 00:01:40;;;;;;;;;;;8.80;99.90;9.20;99879.00;;;;344233;28;83599;-89
2021/10/17 00:01:52;;;;;;;;;;;8.80;99.90;9.20;99878.00;;;;345357;28;96305;-89
2021/10/17 00:02:04;;;;;;;;;;;8.80;99.90;9.20;99884.00;;;;343158;28;83601;-89
2021/10/17 00:02:16;;;;;;;;;;;8.80;99.90;9.30;99879.00;;;;344739;28;95335;-89
2021/10/17 00:02:28;;;;;;;;;;;8.80;99.90;9.30;99876.00;;;;344715;28;83346;-89
2021/10/17 00:02:40;;;;;;;;;;;8.80;99.90;9.30;99877.00;;;;342329;28;94859;-89
2021/10/17 00:02:52;;;;;;;;;;;8.80;99.90;9.30;99873.00;;;;344579;28;83017;-89
2021/10/17 00:03:04;;;;;;;;;;;8.80;99.90;9.30;99880.00;;;;346543;28;95634;-88
2021/10/17 00:03:16;;;;;;;;;;;8.80;99.90;9.30;99875.00;;;;346039;28;83482;-89
2021/10/17 00:03:28;;;;;;;;;;;8.80;99.90;9.30;99875.00;;;;344429;28;96437;-87
2021/10/17 00:03:39;;;;;;;;;;;8.80;99.90;9.30;99875.00;;;;343402;28;83897;-89
2021/10/17 00:03:51;;;;;;;;;;;8.80;99.90;9.30;99873.00;;;;342920;28;95663;-89
2021/10/17 00:04:03;;;;;;;;;;;8.80;99.90;9.20;99867.00;;;;343584;28;82591;-89
2021/10/17 00:04:15;;;;;;;;;;;8.80;99.90;9.20;99873.00;;;;344990;28;95619;-89
2021/10/17 00:04:27;;;;;;;;;;;8.80;99.90;9.20;99870.00;;;;341983;28;83450;-89
2021/10/17 00:04:39;;;;;;;;;;;8.80;99.90;9.20;99876.00;;;;342201;28;95174;-89
2021/10/17 00:04:50;;;;;;;;;;;8.80;99.90;9.20;99880.00;;;;344562;28;82540;-89
2021/10/17 00:05:02;;;;;;;;;;;8.80;99.90;9.20;99878.00;;;;343910;28;96820;-88
2021/10/17 00:05:15;;;;;;;;;;;8.80;99.90;9.20;99871.00;;;;342079;28;83341;-89
2021/10/17 00:05:29;;;;;;;;;;;8.80;99.90;9.30;99871.00;;;;340212;28;97957;-89
2021/10/17 00:05:41;;;;;;;;;;;8.80;99.90;9.30;99870.00;;;;343360;28;82558;-88
2021/10/17 00:05:52;;;;;;;;;;;8.80;99.90;9.20;99864.00;;;;341253;28;95503;-89
2021/10/17 00:06:04;;;;;;;;;;;8.80;99.90;9.20;99865.00;;;;341878;28;83452;-89
2021/10/17 00:06:16;;;;;;;;;;;8.80;99.90;9.20;99872.00;;;;341132;28;95420;-89
2021/10/17 00:06:29;;;;;;;;;;;8.80;99.90;9.30;99877.00;;;;344679;28;82485;-89
2021/10/17 00:06:40;;;;;;;;;;;8.80;99.90;9.30;99872.00;;;;344400;28;95591;-89
2021/10/17 00:06:52;;;;;;;;;;;8.80;99.90;9.40;99862.00;;;;345345;28;83564;-89
2021/10/17 00:07:04;;;;;;;;;;;8.80;99.90;9.40;99866.00;;;;342545;28;96511;-89
2021/10/17 00:07:16;;;;;;;;;;;8.80;99.90;9.30;99866.00;;;;347114;28;82575;-89
2021/10/17 00:07:28;;;;;;;;;;;8.80;99.90;9.20;99866.00;;;;345189;28;96734;-89
2021/10/17 00:07:40;;;;;;;;;;;8.80;99.90;9.10;99873.00;;;;346139;28;83484;-88
2021/10/17 00:07:52;;;;;;;;;;;8.80;99.90;9.30;99866.00;;;;342431;28;94533;-88
2021/10/17 00:08:05;;;;;;;;;;;8.80;99.90;9.30;99873.00;;;;343267;28;82600;-89
2021/10/17 00:08:16;;;;;;;;;;;8.80;99.90;9.30;99874.00;;;;345076;28;96114;-89
2021/10/17 00:08:29;;;;;;;;;;;8.80;99.90;9.20;99869.00;;;;344434;28;83509;-89
2021/10/17 00:08:41;;;;;;;;;;;8.80;99.90;9.20;99869.00;;;;342251;28;95181;-89
2021/10/17 00:08:53;;;;;;;;;;;8.80;99.90;9.20;99869.00;;;;347498;28;82465;-89
2021/10/17 00:09:05;;;;;;;;;;;8.80;99.90;9.20;99866.00;;;;346446;28;95507;-89
2021/10/17 00:09:17;;;;;;;;;;;8.80;99.90;9.20;99867.00;;;;343065;28;83529;-88
2021/10/17 00:09:29;;;;;;;;;;;8.80;99.90;9.20;99869.00;;;;342514;28;97874;-89
2021/10/17 00:09:41;;;;;;;;;;;8.80;99.90;9.20;99869.00;;;;344497;28;82548;-89
2021/10/17 00:09:53;;;;;;;;;;;8.80;99.90;9.20;99871.00;;;;343696;28;96520;-89
2021/10/17 00:10:06;;;;;;;;;;;8.80;99.90;9.10;99862.00;;;;345010;28;82641;-89
2021/10/17 00:10:21;;;;;;;;;;;8.80;99.90;9.10;99870.00;;;;342301;28;95651;-89
2021/10/17 00:10:33;;;;;;;;;;;8.80;99.90;9.10;99868.00;;;;345585;28;83323;-89
2021/10/17 00:10:45;;;;;;;;;;;8.80;99.90;9.20;99870.00;;;;346407;28;94568;-89
2021/10/17 00:10:57;;;;;;;;;;;8.80;99.90;9.10;99877.00;;;;344452;28;83559;-88
2021/10/17 00:11:09;;;;;;;;;;;8.80;99.90;9.10;99872.00;;;;342544;28;96949;-88
2021/10/17 00:11:20;;;;;;;;;;;8.80;99.90;9.10;99870.00;;;;343389;28;82493;-89
2021/10/17 00:11:32;;;;;;;;;;;8.80;99.90;9.10;99873.00;;;;345227;28;97195;-89
2021/10/17 00:11:44;;;;;;;;;;;8.80;99.90;9.10;99873.00;;;;343291;28;83430;-88
2021/10/17 00:11:56;;;;;;;;;;;8.80;99.90;9.10;99873.00;;;;342679;28;93404;-89
2021/10/17 00:12:09;;;;;;;;;;;8.80;99.90;9.10;99877.00;;;;345526;28;83580;-89
2021/10/17 00:12:21;;;;;;;;;;;8.80;99.90;9.10;99874.00;;;;345360;28;96627;-89
2021/10/17 00:12:33;;;;;;;;;;;8.80;99.90;9.10;99882.00;;;;342953;28;82706;-89
2021/10/17 00:12:45;;;;;;;;;;;8.80;99.90;9.10;99876.00;;;;344239;28;96690;-89
2021/10/17 00:12:59;;;;;;;;;;;8.80;99.90;9.10;99875.00;;;;344709;28;83493;-88
2021/10/17 00:13:11;;;;;;;;;;;8.70;99.90;9.10;99864.00;;;;342447;28;97178;-89
2021/10/17 00:13:23;;;;;;;;;;;8.80;99.90;9.10;99873.00;;;;344657;28;82580;-89
2021/10/17 00:13:35;;;;;;;;;;;8.80;99.90;9.30;99871.00;;;;341626;28;95408;-89
2021/10/17 00:13:47;;;;;;;;;;;8.80;99.90;9.30;99875.00;;;;344402;28;83525;-89
2021/10/17 00:13:58;;;;;;;;;;;8.80;99.90;9.30;99874.00;;;;343906;28;96377;-89
2021/10/17 00:14:10;;;;;;;;;;;8.70;99.90;9.30;99865.00;;;;346091;28;82456;-89
2021/10/17 00:14:22;;;;;;;;;;;8.80;99.90;9.30;99873.00;;;;339835;28;96371;-89
2021/10/17 00:14:34;;;;;;;;;;;8.80;99.90;9.30;99872.00;;;;345683;28;83445;-89
2021/10/17 00:14:46;;;;;;;;;;;8.80;99.90;9.30;99875.00;;;;345163;28;95391;-89
2021/10/17 00:14:57;;;;;;;;;;;8.80;99.90;9.30;99876.00;;;;346104;28;83437;-89
2021/10/17 00:15:11;;;;;;;;;;;8.80;99.90;9.40;99871.00;;;;345076;28;95518;-89
2021/10/17 00:15:23;;;;;;;;;;;8.80;99.90;9.40;99867.00;;;;343255;28;83467;-88
2021/10/17 00:15:36;;;;;;;;;;;8.80;99.90;9.40;99871.00;;;;340472;28;97833;-89
2021/10/17 00:15:48;;;;;;;;;;;8.80;99.90;9.40;99874.00;;;;341814;28;83487;-89
2021/10/17 00:16:00;;;;;;;;;;;8.80;99.90;9.30;99876.00;;;;342434;28;96827;-89
2021/10/17 00:16:12;;;;;;;;;;;8.80;99.90;9.20;99873.00;;;;344678;28;82535;-89
2021/10/17 00:16:23;;;;;;;;;;;8.80;99.90;9.30;99882.00;;;;346726;28;96395;-89
2021/10/17 00:16:36;;;;;;;;;;;8.80;99.90;9.30;99866.00;;;;345385;28;83493;-89
2021/10/17 00:16:48;;;;;;;;;;;8.80;99.90;9.30;99868.00;;;;342446;28;96509;-89
2021/10/17 00:17:00;;;;;;;;;;;8.80;99.90;9.30;99872.00;;;;344569;28;82484;-89
2021/10/17 00:17:12;;;;;;;;;;;8.80;99.90;9.30;99876.00;;;;342500;28;95158;-89
2021/10/17 00:17:24;;;;;;;;;;;8.90;99.90;9.30;99884.00;;;;341953;28;83517;-89
2021/10/17 00:17:35;;;;;;;;;;;8.90;99.90;9.30;99879.00;;;;342444;28;97217;-89
2021/10/17 00:17:47;;;;;;;;;;;8.90;99.90;9.30;99863.00;;;;344662;28;82506;-89
2021/10/17 00:18:00;;;;;;;;;;;8.80;99.90;9.20;99874.00;;;;343693;28;95288;-89
2021/10/17 00:18:11;;;;;;;;;;;8.80;99.90;9.30;99879.00;;;;344322;28;83427;-89
2021/10/17 00:18:23;;;;;;;;;;;8.90;99.90;9.30;99872.00;;;;342622;28;96840;-89
2021/10/17 00:18:35;;;;;;;;;;;8.80;99.90;9.30;99864.00;;;;343831;28;83401;-89
2021/10/17 00:18:47;;;;;;;;;;;8.80;99.90;9.20;99867.00;;;;343654;28;94448;-89
2021/10/17 00:18:58;;;;;;;;;;;8.90;99.90;9.20;99872.00;;;;344607;28;83399;-88
2021/10/17 00:19:10;;;;;;;;;;;8.80;99.90;9.20;99874.00;;;;342469;28;96726;-89
2021/10/17 00:19:22;;;;;;;;;;;8.80;99.90;9.10;99875.00;;;;346006;28;83392;-89
2021/10/17 00:19:34;;;;;;;;;;;8.90;99.90;9.10;99877.00;;;;343571;28;95297;-89
2021/10/17 00:19:46;;;;;;;;;;;8.80;99.90;9.10;99870.00;;;;346104;28;83765;-89
2021/10/17 00:19:57;;;;;;;;;;;8.80;99.90;9.10;99870.00;;;;343899;28;94574;-89
2021/10/17 00:20:10;;;;;;;;;;;8.80;99.90;9.20;99870.00;;;;346026;28;83525;-88
2021/10/17 00:20:22;;;;;;;;;;;8.80;99.90;9.30;99876.00;;;;343779;28;95599;-89
2021/10/17 00:20:35;;;;;;;;;;;8.80;99.90;9.20;99865.00;;;;343315;28;83514;-89
2021/10/17 00:20:46;;;;;;;;;;;8.80;99.90;9.30;99877.00;;;;344954;28;96580;-89
2021/10/17 00:20:58;;;;;;;;;;;8.80;99.90;9.30;99872.00;;;;344991;28;83514;-89
2021/10/17 00:21:10;;;;;;;;;;;8.80;99.90;9.30;99866.00;;;;343734;28;96479;-89
2021/10/17 00:21:22;;;;;;;;;;;8.80;99.90;9.30;99868.00;;;;345899;28;83537;-89
2021/10/17 00:21:34;;;;;;;;;;;8.80;99.90;9.30;99873.00;;;;343226;28;97526;-89
2021/10/17 00:21:46;;;;;;;;;;;8.80;99.90;9.30;99859.00;;;;344635;28;82544;-88
2021/10/17 00:21:57;;;;;;;;;;;8.80;99.90;9.30;99871.00;;;;343654;28;95336;-89
2021/10/17 00:22:09;;;;;;;;;;;8.90;99.90;9.30;99868.00;;;;344596;28;84195;-89
2021/10/17 00:22:21;;;;;;;;;;;8.80;99.90;9.40;99869.00;;;;343954;28;96238;-89
2021/10/17 00:22:33;;;;;;;;;;;8.80;99.90;9.30;99876.00;;;;342310;28;82470;-89
2021/10/17 00:22:44;;;;;;;;;;;8.90;99.90;9.30;99878.00;;;;342540;28;96631;-89
2021/10/17 00:22:57;;;;;;;;;;;8.90;99.90;9.30;99861.00;;;;343094;28;82643;-89
2021/10/17 00:23:08;;;;;;;;;;;8.80;99.90;9.30;99873.00;;;;346427;28;96332;-89
2021/10/17 00:23:20;;;;;;;;;;;8.80;99.90;9.40;99873.00;;;;346043;28;82499;-89
2021/10/17 00:23:32;;;;;;;;;;;8.80;99.90;9.50;99869.00;;;;345195;28;96222;-89
2021/10/17 00:23:44;;;;;;;;;;;8.90;99.90;9.50;99867.00;;;;343368;28;82520;-89
2021/10/17 00:23:55;;;;;;;;;;;8.90;99.90;9.50;99872.00;;;;346264;28;96846;-88
2021/10/17 00:24:07;;;;;;;;;;;8.90;99.90;9.40;99862.00;;;;346088;28;83390;-89
2021/10/17 00:24:19;;;;;;;;;;;8.90;99.90;9.50;99869.00;;;;341462;28;96361;-88
2021/10/17 00:24:31;;;;;;;;;;;8.90;99.90;9.50;99878.00;;;;344329;28;82555;-89
2021/10/17 00:24:43;;;;;;;;;;;8.90;99.90;9.40;99872.00;;;;342123;28;95582;-89
2021/10/17 00:24:54;;;;;;;;;;;8.90;99.90;9.40;99872.00;;;;344660;28;83385;-88
2021/10/17 00:25:07;;;;;;;;;;;8.90;99.90;9.30;99873.00;;;;343803;28;95289;-94
2021/10/17 00:25:19;;;;;;;;;;;8.90;99.90;9.30;99866.00;;;;341988;28;83460;-85
2021/10/17 00:25:33;;;;;;;;;;;8.90;99.90;9.40;99868.00;;;;341619;28;97404;-89
2021/10/17 00:25:45;;;;;;;;;;;8.90;99.90;9.40;99869.00;;;;343275;28;83443;-89
2021/10/17 00:25:57;;;;;;;;;;;8.90;99.90;9.40;99867.00;;;;343811;28;96629;-88
2021/10/17 00:26:09;;;;;;;;;;;8.90;99.90;9.40;99871.00;;;;344393;28;83480;-89
2021/10/17 00:26:20;;;;;;;;;;;8.90;99.90;9.30;99874.00;;;;342597;28;95714;-89
2021/10/17 00:26:33;;;;;;;;;;;8.90;99.90;9.30;99878.00;;;;343662;28;82993;-89
2021/10/17 00:26:45;;;;;;;;;;;8.90;99.90;9.20;99867.00;;;;343612;28;95154;-88
2021/10/17 00:26:56;;;;;;;;;;;8.90;99.90;9.30;99878.00;;;;343308;28;82464;-86
2021/10/17 00:27:08;;;;;;;;;;;8.90;99.90;9.30;99869.00;;;;344701;28;96856;-86
2021/10/17 00:27:20;;;;;;;;;;;8.90;99.90;9.20;99872.00;;;;343278;28;83487;-86
2021/10/17 00:27:32;;;;;;;;;;;8.90;99.90;9.20;99872.00;;;;341528;28;97502;-85
2021/10/17 00:27:43;;;;;;;;;;;8.90;99.90;9.20;99874.00;;;;342012;28;83472;-86
2021/10/17 00:27:55;;;;;;;;;;;8.90;99.90;9.20;99873.00;;;;342516;28;95223;-86
2021/10/17 00:28:07;;;;;;;;;;;8.90;99.90;9.30;99874.00;;;;344313;28;83636;-84
2021/10/17 00:28:19;;;;;;;;;;;8.90;99.90;9.30;99868.00;;;;345428;28;93180;-84
2021/10/17 00:28:31;;;;;;;;;;;8.90;99.90;9.40;99867.00;;;;343255;28;83431;-87
2021/10/17 00:28:43;;;;;;;;;;;8.90;99.90;9.40;99873.00;;;;343765;28;96997;-85
2021/10/17 00:28:54;;;;;;;;;;;8.90;99.90;9.40;99873.00;;;;344282;28;82626;-88
2021/10/17 00:29:08;;;;;;;;;;;8.90;99.90;9.40;99877.00;;;;343925;28;95599;-87
2021/10/17 00:29:20;;;;;;;;;;;8.90;99.90;9.40;99873.00;;;;344341;28;83300;-87
2021/10/17 00:29:32;;;;;;;;;;;8.90;99.90;9.30;99877.00;;;;343862;28;96301;-88
2021/10/17 00:29:44;;;;;;;;;;;8.90;99.90;9.30;99868.00;;;;344624;28;83477;-88
2021/10/17 00:29:55;;;;;;;;;;;8.90;99.90;9.20;99857.00;;;;342524;28;97012;-88
2021/10/17 00:30:08;;;;;;;;;;;8.90;99.90;9.20;99872.00;;;;343368;28;83438;-87
2021/10/17 00:30:20;;;;;;;;;;;8.90;99.90;9.20;99869.00;;;;340700;28;95919;-88
2021/10/17 00:30:31;;;;;;;;;;;8.80;99.90;9.30;99879.00;;;;344167;28;82335;-88
2021/10/17 00:30:43;;;;;;;;;;;8.90;99.90;9.20;99870.00;;;;341247;28;95454;-88
2021/10/17 00:30:55;;;;;;;;;;;8.80;99.90;9.30;99873.00;;;;343560;28;83463;-87
2021/10/17 00:31:07;;;;;;;;;;;8.80;99.90;9.30;99874.00;;;;342463;28;96617;-88
2021/10/17 00:31:19;;;;;;;;;;;8.80;99.90;9.20;99880.00;;;;344641;28;82527;-87
2021/10/17 00:31:31;;;;;;;;;;;8.90;99.90;9.20;99872.00;;;;342402;28;97423;-87
2021/10/17 00:31:42;;;;;;;;;;;8.90;99.90;9.20;99871.00;;;;343120;28;83579;-87
2021/10/17 00:31:54;;;;;;;;;;;8.80;99.90;9.20;99865.00;;;;343583;28;95505;-88
2021/10/17 00:32:09;;;;;;;;;;;8.90;99.90;9.10;99880.00;;;;344448;28;83404;-87
2021/10/17 00:32:20;;;;;;;;;;;8.80;99.90;9.10;99873.00;;;;343932;28;96554;-87
2021/10/17 00:32:32;;;;;;;;;;;8.80;99.90;9.10;99884.00;;;;346023;28;83481;-88
2021/10/17 00:32:44;;;;;;;;;;;8.80;99.90;9.00;99879.00;;;;343563;28;96272;-88
2021/10/17 00:32:56;;;;;;;;;;;8.80;99.90;9.00;99884.00;;;;344702;28;82553;-87
2021/10/17 00:33:08;;;;;;;;;;;8.80;99.90;9.00;99882.00;;;;344636;28;95522;-87
2021/10/17 00:33:20;;;;;;;;;;;8.80;99.90;9.10;99876.00;;;;344743;28;82464;-87
2021/10/17 00:33:32;;;;;;;;;;;8.80;99.90;9.10;99874.00;;;;343851;28;96449;-87
2021/10/17 00:33:44;;;;;;;;;;;8.80;99.90;9.10;99876.00;;;;343537;28;83401;-88
2021/10/17 00:33:55;;;;;;;;;;;8.80;99.90;9.00;99878.00;;;;343904;28;96616;-88
2021/10/17 00:34:07;;;;;;;;;;;8.80;99.90;9.00;99882.00;;;;343135;28;83588;-88
2021/10/17 00:34:19;;;;;;;;;;;8.80;99.90;9.00;99885.00;;;;342370;28;96378;-87
2021/10/17 00:34:31;;;;;;;;;;;8.80;99.90;9.00;99877.00;;;;344584;28;82555;-88
2021/10/17 00:34:44;;;;;;;;;;;8.70;99.90;9.00;99876.00;;;;343498;28;95362;-88
2021/10/17 00:34:58;;;;;;;;;;;8.80;99.90;9.00;99880.00;;;;345814;28;83394;-87
2021/10/17 00:35:10;;;;;;;;;;;8.70;99.90;9.00;99877.00;;;;344938;28;95644;-87
2021/10/17 00:35:22;;;;;;;;;;;8.70;99.90;9.00;99880.00;;;;343230;28;82383;-87
2021/10/17 00:35:35;;;;;;;;;;;8.70;99.90;9.00;99885.00;;;;342483;28;96093;-87
2021/10/17 00:35:47;;;;;;;;;;;8.70;99.90;8.90;99881.00;;;;340802;28;83379;-88
2021/10/17 00:35:59;;;;;;;;;;;8.70;99.90;8.90;99877.00;;;;341195;28;96575;-88
2021/10/17 00:36:11;;;;;;;;;;;8.70;99.90;8.90;99881.00;;;;341575;28;83723;-87
2021/10/17 00:36:24;;;;;;;;;;;8.70;99.90;9.00;99884.00;;;;342589;28;95588;-87
2021/10/17 00:36:35;;;;;;;;;;;8.70;99.90;9.00;99878.00;;;;344127;28;83652;-87
2021/10/17 00:36:48;;;;;;;;;;;8.70;99.90;9.10;99879.00;;;;343117;28;95716;-87
2021/10/17 00:37:00;;;;;;;;;;;8.60;99.90;9.20;99881.00;;;;345741;28;83343;-87
2021/10/17 00:37:12;;;;;;;;;;;8.60;99.90;9.20;99882.00;;;;343805;28;95777;-87
2021/10/17 00:37:26;;;;;;;;;;;8.70;99.90;9.30;99883.00;;;;346037;28;83417;-88
2021/10/17 00:37:38;;;;;;;;;;;8.60;99.90;9.20;99884.00;;;;343681;28;96006;-87
2021/10/17 00:37:50;;;;;;;;;;;8.70;99.90;9.20;99885.00;;;;343036;28;83377;-87
2021/10/17 00:38:01;;;;;;;;;;;8.70;99.90;9.30;99883.00;;;;342420;28;97195;-87
2021/10/17 00:38:13;;;;;;;;;;;8.70;99.90;9.30;99883.00;;;;343298;28;83382;-87
2021/10/17 00:38:25;;;;;;;;;;;8.70;99.90;9.30;99876.00;;;;343600;28;96557;-88
2021/10/17 00:38:37;;;;;;;;;;;8.70;99.90;9.30;99872.00;;;;344414;28;82684;-88
2021/10/17 00:38:49;;;;;;;;;;;8.70;99.90;9.20;99881.00;;;;345221;28;96302;-87
2021/10/17 00:39:01;;;;;;;;;;;8.70;99.90;9.20;99882.00;;;;345873;28;83465;-87
2021/10/17 00:39:12;;;;;;;;;;;8.70;99.90;9.20;99883.00;;;;342413;28;97072;-87
2021/10/17 00:39:24;;;;;;;;;;;8.70;99.90;9.20;99884.00;;;;345955;28;84203;-87
2021/10/17 00:39:36;;;;;;;;;;;8.70;99.90;9.20;99886.00;;;;340626;28;96133;-88
2021/10/17 00:39:48;;;;;;;;;;;8.70;99.90;9.20;99878.00;;;;343314;28;82647;-87
2021/10/17 00:40:00;;;;;;;;;;;8.70;99.90;9.20;99886.00;;;;342370;28;95439;-87
2021/10/17 00:40:17;;;;;;;;;;;8.70;99.90;9.20;99885.00;;;;344412;28;83039;-87
2021/10/17 00:40:29;;;;;;;;;;;8.70;99.90;9.20;99881.00;;;;342451;28;95259;-88
2021/10/17 00:40:40;;;;;;;;;;;8.70;99.90;9.20;99885.00;;;;343418;28;82469;-86
2021/10/17 00:40:53;;;;;;;;;;;8.70;99.90;9.20;99882.00;;;;340248;28;96460;-87
2021/10/17 00:41:05;;;;;;;;;;;8.70;99.90;9.20;99877.00;;;;344752;28;83341;-87
2021/10/17 00:41:17;;;;;;;;;;;8.70;99.90;9.20;99885.00;;;;342559;28;95199;-87
2021/10/17 00:41:32;;;;;;;;;;;8.70;99.90;9.10;99889.00;;;;344587;28;82547;-87
2021/10/17 00:41:44;;;;;;;;;;;8.70;99.90;9.10;99894.00;;;;342708;28;97336;-87
2021/10/17 00:41:56;;;;;;;;;;;8.70;99.90;9.00;99889.00;;;;343305;28;83352;-87
2021/10/17 00:42:08;;;;;;;;;;;8.70;99.90;9.00;99886.00;;;;341181;28;93323;-87
2021/10/17 00:42:19;;;;;;;;;;;8.70;99.90;9.00;99883.00;;;;346070;28;82651;-88
2021/10/17 00:42:32;;;;;;;;;;;8.70;99.90;9.00;99894.00;;;;340695;28;95386;-88
2021/10/17 00:42:44;;;;;;;;;;;8.70;99.90;9.00;99888.00;;;;343536;28;83583;-87
2021/10/17 00:42:56;;;;;;;;;;;8.70;99.90;9.10;99891.00;;;;342450;28;96570;-87
2021/10/17 00:43:08;;;;;;;;;;;8.70;99.90;9.10;99886.00;;;;343342;28;82496;-87
2021/10/17 00:43:21;;;;;;;;;;;8.70;99.90;9.20;99891.00;;;;343858;28;95438;-87
2021/10/17 00:43:33;;;;;;;;;;;8.70;99.90;9.20;99892.00;;;;344416;28;83510;-88
2021/10/17 00:43:46;;;;;;;;;;;8.70;99.90;9.20;99896.00;;;;342364;28;96183;-88
2021/10/17 00:43:59;;;;;;;;;;;8.70;99.90;9.00;99894.00;;;;343100;28;82598;-88
2021/10/17 00:44:18;;;;;;;;;;;8.70;99.90;9.00;99892.00;;;;342547;28;96370;-88
2021/10/17 00:44:29;;;;;;;;;;;8.70;99.90;9.00;99898.00;;;;343295;28;83495;-88
2021/10/17 00:44:41;;;;;;;;;;;8.70;99.90;9.00;99887.00;;;;344529;28;96964;-88
2021/10/17 00:44:55;;;;;;;;;;;8.70;99.90;9.00;99898.00;;;;344545;28;83909;-88
2021/10/17 00:45:09;;;;;;;;;;;8.70;99.90;9.10;99890.00;;;;342526;28;96362;-88
2021/10/17 00:45:26;;;;;;;;;;;8.70;99.90;9.10;99891.00;;;;344626;28;83447;-88
2021/10/17 00:45:38;;;;;;;;;;;8.70;99.90;9.10;99888.00;;;;343558;28;96525;-87
2021/10/17 00:45:50;;;;;;;;;;;8.70;99.90;9.10;99898.00;;;;344459;28;83555;-87
2021/10/17 00:46:02;;;;;;;;;;;8.70;99.90;9.00;99887.00;;;;343686;28;96280;-87
2021/10/17 00:46:16;;;;;;;;;;;8.70;99.90;9.10;99893.00;;;;344679;28;83463;-87
2021/10/17 00:46:28;;;;;;;;;;;8.70;99.90;9.00;99891.00;;;;341083;28;95390;-87
2021/10/17 00:46:40;;;;;;;;;;;8.70;99.90;9.00;99888.00;;;;343323;28;82514;-88
2021/10/17 00:46:51;;;;;;;;;;;8.70;99.90;9.10;99890.00;;;;342496;28;95341;-87
2021/10/17 00:47:03;;;;;;;;;;;8.70;99.90;9.00;99887.00;;;;342473;28;82548;-88
2021/10/17 00:47:15;;;;;;;;;;;8.70;99.90;9.00;99882.00;;;;342509;28;96753;-87
2021/10/17 00:47:27;;;;;;;;;;;8.60;99.90;9.00;99890.00;;;;344513;28;83437;-88
2021/10/17 00:47:39;;;;;;;;;;;8.60;99.90;9.00;99896.00;;;;343954;28;96704;-87
2021/10/17 00:47:50;;;;;;;;;;;8.60;99.90;9.10;99888.00;;;;343274;28;83488;-87
2021/10/17 00:48:04;;;;;;;;;;;8.60;99.90;9.10;99888.00;;;;342375;28;97373;-87
2021/10/17 00:48:16;;;;;;;;;;;8.60;99.90;9.20;99888.00;;;;341021;28;83409;-85
2021/10/17 00:48:28;;;;;;;;;;;8.70;99.90;9.20;99888.00;;;;343525;28;94540;-87
2021/10/17 00:48:40;;;;;;;;;;;8.70;99.90;9.20;99888.00;;;;343927;28;83519;-87
2021/10/17 00:48:51;;;;;;;;;;;8.70;99.90;9.10;99887.00;;;;342404;28;96646;-87
2021/10/17 00:49:03;;;;;;;;;;;8.70;99.90;9.10;99888.00;;;;343151;28;83326;-87
2021/10/17 00:49:19;;;;;;;;;;;8.70;99.90;9.20;99882.00;;;;341048;28;95412;-88
2021/10/17 00:49:31;;;;;;;;;;;8.70;99.90;9.20;99889.00;;;;342909;28;84190;-87
2021/10/17 00:49:43;;;;;;;;;;;8.60;99.90;9.20;99885.00;;;;342518;28;97204;-87
2021/10/17 00:49:54;;;;;;;;;;;8.70;99.90;9.20;99892.00;;;;343350;28;83459;-87
2021/10/17 00:50:07;;;;;;;;;;;8.70;99.90;9.10;99887.00;;;;340981;28;96286;-87
2021/10/17 00:50:18;;;;;;;;;;;8.70;99.90;9.20;99884.00;;;;341961;28;83464;-87
2021/10/17 00:50:31;;;;;;;;;;;8.60;99.90;9.20;99896.00;;;;343362;28;96654;-88
2021/10/17 00:50:43;;;;;;;;;;;8.70;99.90;9.20;99892.00;;;;344633;28;83435;-88
2021/10/17 00:50:54;;;;;;;;;;;8.70;99.90;9.20;99894.00;;;;344975;28;94431;-88
2021/10/17 00:51:06;;;;;;;;;;;8.70;99.90;9.20;99894.00;;;;344667;28;82549;-88
2021/10/17 00:51:18;;;;;;;;;;;8.70;99.90;9.20;99889.00;;;;343686;28;94500;-88
2021/10/17 00:51:29;;;;;;;;;;;8.70;99.90;9.20;99890.00;;;;343120;28;83546;-87
2021/10/17 00:51:42;;;;;;;;;;;8.70;99.90;9.10;99894.00;;;;343626;28;94833;-87
2021/10/17 00:51:54;;;;;;;;;;;8.70;99.90;9.10;99885.00;;;;343278;28;83466;-87
2021/10/17 00:52:05;;;;;;;;;;;8.70;99.90;9.10;99886.00;;;;343627;28;96681;-87
2021/10/17 00:52:17;;;;;;;;;;;8.70;99.90;9.10;99893.00;;;;344569;28;83432;-88
2021/10/17 00:52:29;;;;;;;;;;;8.70;99.90;9.00;99885.00;;;;342464;28;95427;-88
2021/10/17 00:52:42;;;;;;;;;;;8.70;99.90;9.00;99879.00;;;;344667;28;83380;-86
2021/10/17 00:52:54;;;;;;;;;;;8.70;99.90;9.00;99890.00;;;;344757;28;96397;-87
2021/10/17 00:53:06;;;;;;;;;;;8.60;99.90;9.00;99889.00;;;;345996;28;83493;-87
2021/10/17 00:53:19;;;;;;;;;;;8.70;99.90;9.00;99886.00;;;;343733;28;96402;-87
2021/10/17 00:53:31;;;;;;;;;;;8.60;99.90;9.00;99891.00;;;;343187;28;83468;-88
2021/10/17 00:53:43;;;;;;;;;;;8.60;99.90;8.90;99888.00;;;;343704;28;95104;-88
2021/10/17 00:53:55;;;;;;;;;;;8.60;99.90;8.90;99885.00;;;;344485;28;83422;-87
2021/10/17 00:54:07;;;;;;;;;;;8.60;99.90;8.80;99889.00;;;;343754;28;97269;-87
2021/10/17 00:54:18;;;;;;;;;;;8.60;99.90;8.90;99891.00;;;;347054;28;82615;-87
2021/10/17 00:54:30;;;;;;;;;;;8.60;99.90;9.10;99887.00;;;;343602;28;97095;-87
2021/10/17 00:54:42;;;;;;;;;;;8.60;99.90;9.00;99889.00;;;;344447;28;82570;-88
2021/10/17 00:54:55;;;;;;;;;;;8.60;99.90;9.00;99885.00;;;;343898;28;95562;-87
2021/10/17 00:55:07;;;;;;;;;;;8.60;99.90;9.00;99885.00;;;;344565;28;83500;-88
2021/10/17 00:55:20;;;;;;;;;;;8.60;99.90;9.00;99892.00;;;;342237;28;95533;-88
2021/10/17 00:55:31;;;;;;;;;;;8.60;99.90;8.90;99888.00;;;;341862;28;82717;-88
2021/10/17 00:56:04;;;;;;;;;;;8.60;99.90;8.90;99880.00;;;;341589;28;96614;-88
2021/10/17 00:56:16;;;;;;;;;;;8.60;99.90;8.90;99885.00;;;;344535;28;83280;-87
2021/10/17 00:56:27;;;;;;;;;;;8.60;99.90;8.90;99886.00;;;;344904;28;96332;-88
2021/10/17 00:56:40;;;;;;;;;;;8.60;99.90;8.80;99880.00;;;;345727;28;82587;-88
2021/10/17 00:56:52;;;;;;;;;;;8.60;99.90;8.80;99882.00;;;;345005;28;95560;-87
2021/10/17 00:57:04;;;;;;;;;;;8.50;99.90;8.90;99880.00;;;;343140;28;82440;-88
2021/10/17 00:57:15;;;;;;;;;;;8.60;99.90;9.00;99893.00;;;;345296;28;95422;-88
2021/10/17 00:57:27;;;;;;;;;;;8.60;99.90;8.90;99884.00;;;;345547;28;82623;-88
2021/10/17 00:57:40;;;;;;;;;;;8.60;99.90;8.90;99890.00;;;;343563;28;95550;-88
2021/10/17 00:57:51;;;;;;;;;;;8.60;99.90;8.80;99896.00;;;;343742;28;83296;-87
2021/10/17 00:58:03;;;;;;;;;;;8.60;99.90;8.80;99881.00;;;;344816;28;96026;-87
2021/10/17 00:58:17;;;;;;;;;;;8.50;99.90;8.80;99887.00;;;;344727;28;83373;-87
2021/10/17 00:58:29;;;;;;;;;;;8.60;99.90;8.80;99886.00;;;;341023;28;97627;-88
2021/10/17 00:58:41;;;;;;;;;;;8.50;99.90;8.80;99884.00;;;;344648;28;83424;-87
2021/10/17 00:58:52;;;;;;;;;;;8.50;99.90;8.80;99887.00;;;;341738;28;95585;-87
2021/10/17 00:59:04;;;;;;;;;;;8.50;99.90;8.80;99884.00;;;;344641;28;83370;-87
2021/10/17 00:59:16;;;;;;;;;;;8.50;99.90;8.80;99880.00;;;;343764;28;97551;-88
2021/10/17 00:59:28;;;;;;;;;;;8.50;99.90;8.80;99879.00;;;;345922;28;83525;-88
2021/10/17 00:59:40;;;;;;;;;;;8.50;99.90;8.90;99881.00;;;;343916;28;95187;-88
2021/10/17 00:59:51;;;;;;;;;;;8.50;99.90;8.70;99888.00;;;;343131;28;83554;-88
2021/10/17 01:00:04;;;;;;;;;;;8.50;99.90;8.70;99881.00;;;;342479;28;95291;-88
2021/10/17 01:00:16;;;;;;;;;;;8.50;99.90;8.70;99891.00;;;;341889;28;83348;-87
2021/10/17 01:00:27;;;;;;;;;;;8.50;99.90;8.70;99884.00;;;;343337;28;96383;-87
2021/10/17 01:00:39;;;;;;;;;;;8.50;99.90;8.80;99881.00;;;;342338;28;83633;-87
2021/10/17 01:00:51;;;;;;;;;;;8.50;99.90;8.80;99885.00;;;;343554;28;95821;-87
2021/10/17 01:01:04;;;;;;;;;;;8.50;99.90;8.80;99883.00;;;;344391;28;82604;-87
2021/10/17 01:01:16;;;;;;;;;;;8.40;99.90;8.80;99888.00;;;;343940;28;93026;-87
2021/10/17 01:01:28;;;;;;;;;;;8.40;99.90;8.80;99876.00;;;;344514;28;83264;-88
2021/10/17 01:01:40;;;;;;;;;;;8.50;99.90;8.80;99886.00;;;;342587;28;95378;-87
2021/10/17 01:01:52;;;;;;;;;;;8.50;99.90;8.90;99885.00;;;;341870;28;83554;-87
2021/10/17 01:02:05;;;;;;;;;;;8.50;99.90;8.90;99883.00;;;;342434;28;95341;-87